Aeroporto :
LOGIN :

Iscrizione | Disclaimer

   EN    FR    IT 

 










Sommario :    VFR   VFR Marginale   IFR   IFR Intensivo   IFR Molto Intensivo
Visibilità : 
Base nubi : 
>= 8 km
>= 3000ft
5 / 8 km
1000 / 3000 ft
1500m / 5 km
500 / 1000 ft
800 / 1500m
200 / 500 ft
< 800m
< 200 ft
Simboli :   Temporali  Nebbia  Neve Forte  Precipitazioni Forti  Vento > 20 kt
SIGMETs :   Varie  Temporali  Ghiacco  Turbolenza  Onda orograficha  Ceneri Vulcaniche






- Altitudine del aeroporto : 794 ft


LKCV - Čáslav Air Base

ULTIMO METAR :
  • 240100Z 22005KT 7000 -RA FEW039 BKN060 OVC080 16/15 Q1007 RERA

METARs OBSOLETI :
  • 240030Z 17002KT 9000 -RA SCT037 BKN059 OVC090 17/15 Q1007 NOSIG
  • 240000Z 15004KT 9999 -RA BKN041 BKN090 17/14 Q1007 NOSIG RMK BLU BLU
  • 232330Z 12005KT 9999 SCT044 BKN110 16/14 Q1007 NOSIG RMK BLU BLU
  • 232300Z 20003KT 170V230 CAVOK 17/14 Q1007 NOSIG RMK BLU BLU
  • 232230Z 19003KT 150V230 CAVOK 17/15 Q1007 NOSIG RMK BLU BLU

TAF TAF LKCV
Valido dal 24 a 00 ore il 25 a 00 ore UTC


232300Z 2400/2500 24006KT CAVOK
TEMPO 2400/2402 SHRA SCT035TCU
TEMPO 2410/2415 26013KT



MetMap, La meteo Aeronautica in un colpo d'occhio ! - Copyright ORBIFLY Dicembre 2007 - Disclaimer

ORBIFLY MET'MAP TEAM :

Programmazione e sviluppo : Alexandra Zaïnal
Concezione : Baudouin d'Aumeries
Aiuto per la programmazione : Marc-Olivier Méhu
Supporto tecnico e logistico : Manuel Goepfert
Aiuto per la traduzione : Arnaldo La Scala

Contatto : metmap@orbifly.com




FONTI E CREDITI :

   NOAA